sensor_id;sensor_type;location;lat;lon;timestamp;P1;durP1;ratioP1;P2;durP2;ratioP2
9759;SDS011;4919;48.792;9.202;2022-09-01T00:01:46;1.40;;;1.30;;
9759;SDS011;4919;48.792;9.202;2022-09-01T00:04:18;1.50;;;1.40;;
9759;SDS011;4919;48.792;9.202;2022-09-01T00:06:47;2.00;;;1.30;;
9759;SDS011;4919;48.792;9.202;2022-09-01T00:09:16;2.10;;;1.20;;
9759;SDS011;4919;48.792;9.202;2022-09-01T00:11:47;3.60;;;1.40;;
9759;SDS011;4919;48.792;9.202;2022-09-01T00:14:17;1.97;;;1.30;;
9759;SDS011;4919;48.792;9.202;2022-09-01T00:16:56;3.17;;;1.30;;
9759;SDS011;4919;48.792;9.202;2022-09-01T00:19:24;3.37;;;1.50;;
9759;SDS011;4919;48.792;9.202;2022-09-01T00:21:52;1.43;;;1.30;;
9759;SDS011;4919;48.792;9.202;2022-09-01T00:24:18;2.23;;;1.40;;
9759;SDS011;4919;48.792;9.202;2022-09-01T00:26:45;1.40;;;1.30;;
9759;SDS011;4919;48.792;9.202;2022-09-01T00:29:13;1.40;;;1.23;;
9759;SDS011;4919;48.792;9.202;2022-09-01T00:31:40;1.60;;;1.30;;
9759;SDS011;4919;48.792;9.202;2022-09-01T00:34:08;2.37;;;1.40;;
9759;SDS011;4919;48.792;9.202;2022-09-01T00:36:34;2.70;;;1.30;;
9759;SDS011;4919;48.792;9.202;2022-09-01T00:39:02;1.77;;;1.40;;
9759;SDS011;4919;48.792;9.202;2022-09-01T00:41:31;1.53;;;1.20;;
9759;SDS011;4919;48.792;9.202;2022-09-01T00:44:01;2.07;;;1.43;;
9759;SDS011;4919;48.792;9.202;2022-09-01T00:46:38;1.70;;;1.40;;
9759;SDS011;4919;48.792;9.202;2022-09-01T00:49:18;1.20;;;1.10;;
9759;SDS011;4919;48.792;9.202;2022-09-01T00:51:53;1.60;;;1.23;;
9759;SDS011;4919;48.792;9.202;2022-09-01T00:54:25;2.07;;;1.30;;
9759;SDS011;4919;48.792;9.202;2022-09-01T00:56:55;1.70;;;1.30;;
9759;SDS011;4919;48.792;9.202;2022-09-01T00:59:24;3.00;;;1.50;;
9759;SDS011;4919;48.792;9.202;2022-09-01T01:01:53;2.77;;;1.20;;
9759;SDS011;4919;48.792;9.202;2022-09-01T01:04:21;2.80;;;1.40;;
9759;SDS011;4919;48.792;9.202;2022-09-01T01:06:49;1.93;;;1.20;;
9759;SDS011;4919;48.792;9.202;2022-09-01T01:09:28;1.70;;;1.20;;
9759;SDS011;4919;48.792;9.202;2022-09-01T01:11:58;1.90;;;1.30;;
9759;SDS011;4919;48.792;9.202;2022-09-01T01:14:28;1.37;;;1.10;;
9759;SDS011;4919;48.792;9.202;2022-09-01T01:16:58;2.37;;;1.37;;
9759;SDS011;4919;48.792;9.202;2022-09-01T01:19:32;1.70;;;1.30;;
9759;SDS011;4919;48.792;9.202;2022-09-01T01:22:38;1.53;;;1.30;;
9759;SDS011;4919;48.792;9.202;2022-09-01T01:28:05;1.30;;;1.10;;
9759;SDS011;4919;48.792;9.202;2022-09-01T01:30:37;1.63;;;1.23;;
9759;SDS011;4919;48.792;9.202;2022-09-01T01:33:07;1.80;;;1.20;;
9759;SDS011;4919;48.792;9.202;2022-09-01T01:35:37;2.77;;;1.30;;
9759;SDS011;4919;48.792;9.202;2022-09-01T01:38:05;2.23;;;1.30;;
9759;SDS011;4919;48.792;9.202;2022-09-01T01:40:33;2.13;;;1.30;;
9759;SDS011;4919;48.792;9.202;2022-09-01T01:43:02;1.53;;;1.10;;
9759;SDS011;4919;48.792;9.202;2022-09-01T01:45:30;1.50;;;1.30;;
9759;SDS011;4919;48.792;9.202;2022-09-01T01:47:57;1.53;;;1.10;;
9759;SDS011;4919;48.792;9.202;2022-09-01T01:50:26;2.13;;;1.40;;
9759;SDS011;4919;48.792;9.202;2022-09-01T01:52:58;1.50;;;1.23;;
9759;SDS011;4919;48.792;9.202;2022-09-01T01:55:36;1.60;;;1.30;;
9759;SDS011;4919;48.792;9.202;2022-09-01T01:58:03;2.07;;;1.30;;
9759;SDS011;4919;48.792;9.202;2022-09-01T02:00:31;1.93;;;1.30;;
9759;SDS011;4919;48.792;9.202;2022-09-01T02:03:01;1.83;;;1.30;;
9759;SDS011;4919;48.792;9.202;2022-09-01T02:05:29;1.27;;;1.17;;
9759;SDS011;4919;48.792;9.202;2022-09-01T02:08:01;3.10;;;1.40;;
9759;SDS011;4919;48.792;9.202;2022-09-01T02:10:31;1.30;;;1.20;;
9759;SDS011;4919;48.792;9.202;2022-09-01T02:13:05;1.30;;;1.20;;
9759;SDS011;4919;48.792;9.202;2022-09-01T02:15:35;1.17;;;1.07;;
9759;SDS011;4919;48.792;9.202;2022-09-01T02:18:11;2.70;;;1.37;;
9759;SDS011;4919;48.792;9.202;2022-09-01T02:20:42;1.67;;;1.27;;
9759;SDS011;4919;48.792;9.202;2022-09-01T02:23:13;2.97;;;1.20;;
9759;SDS011;4919;48.792;9.202;2022-09-01T02:25:43;2.20;;;1.40;;
9759;SDS011;4919;48.792;9.202;2022-09-01T02:28:35;1.37;;;1.27;;
9759;SDS011;4919;48.792;9.202;2022-09-01T02:31:04;1.50;;;1.30;;
9759;SDS011;4919;48.792;9.202;2022-09-01T02:33:34;2.00;;;1.43;;
9759;SDS011;4919;48.792;9.202;2022-09-01T02:36:07;2.20;;;1.20;;
9759;SDS011;4919;48.792;9.202;2022-09-01T02:38:40;1.30;;;1.20;;
9759;SDS011;4919;48.792;9.202;2022-09-01T02:41:12;1.60;;;1.30;;
9759;SDS011;4919;48.792;9.202;2022-09-01T02:43:43;1.30;;;1.17;;
9759;SDS011;4919;48.792;9.202;2022-09-01T02:46:11;3.00;;;1.60;;
9759;SDS011;4919;48.792;9.202;2022-09-01T02:48:41;2.63;;;1.30;;
9759;SDS011;4919;48.792;9.202;2022-09-01T02:51:14;1.50;;;1.10;;
9759;SDS011;4919;48.792;9.202;2022-09-01T02:53:43;1.57;;;1.13;;
9759;SDS011;4919;48.792;9.202;2022-09-01T02:56:14;3.23;;;1.20;;
9759;SDS011;4919;48.792;9.202;2022-09-01T02:58:42;1.37;;;1.10;;
9759;SDS011;4919;48.792;9.202;2022-09-01T03:03:47;4.30;;;1.30;;
9759;SDS011;4919;48.792;9.202;2022-09-01T03:06:17;2.60;;;1.50;;
9759;SDS011;4919;48.792;9.202;2022-09-01T03:08:46;1.70;;;1.20;;
9759;SDS011;4919;48.792;9.202;2022-09-01T03:11:13;1.67;;;1.23;;
9759;SDS011;4919;48.792;9.202;2022-09-01T03:13:41;2.43;;;1.40;;
9759;SDS011;4919;48.792;9.202;2022-09-01T03:16:08;2.17;;;1.27;;
9759;SDS011;4919;48.792;9.202;2022-09-01T03:18:37;1.10;;;1.03;;
9759;SDS011;4919;48.792;9.202;2022-09-01T03:21:05;2.07;;;1.47;;
9759;SDS011;4919;48.792;9.202;2022-09-01T03:23:34;2.40;;;1.50;;
9759;SDS011;4919;48.792;9.202;2022-09-01T03:26:02;2.53;;;1.40;;
9759;SDS011;4919;48.792;9.202;2022-09-01T03:28:29;6.27;;;1.57;;
9759;SDS011;4919;48.792;9.202;2022-09-01T03:30:58;2.10;;;1.30;;
9759;SDS011;4919;48.792;9.202;2022-09-01T03:33:26;2.30;;;1.47;;
9759;SDS011;4919;48.792;9.202;2022-09-01T03:35:55;2.67;;;1.30;;
9759;SDS011;4919;48.792;9.202;2022-09-01T03:38:23;2.17;;;1.50;;
9759;SDS011;4919;48.792;9.202;2022-09-01T03:40:53;2.20;;;1.40;;
9759;SDS011;4919;48.792;9.202;2022-09-01T03:43:24;2.70;;;1.40;;
9759;SDS011;4919;48.792;9.202;2022-09-01T03:46:01;2.60;;;1.40;;
9759;SDS011;4919;48.792;9.202;2022-09-01T03:48:28;2.30;;;1.40;;
9759;SDS011;4919;48.792;9.202;2022-09-01T03:50:57;2.07;;;1.50;;
9759;SDS011;4919;48.792;9.202;2022-09-01T03:53:30;1.97;;;1.50;;
9759;SDS011;4919;48.792;9.202;2022-09-01T03:55:59;2.87;;;1.30;;
9759;SDS011;4919;48.792;9.202;2022-09-01T03:58:27;3.00;;;1.50;;
9759;SDS011;4919;48.792;9.202;2022-09-01T04:00:55;1.97;;;1.30;;
9759;SDS011;4919;48.792;9.202;2022-09-01T04:03:27;2.30;;;1.50;;
9759;SDS011;4919;48.792;9.202;2022-09-01T04:05:58;2.30;;;1.33;;
9759;SDS011;4919;48.792;9.202;2022-09-01T04:08:26;3.83;;;1.60;;
9759;SDS011;4919;48.792;9.202;2022-09-01T04:11:00;1.77;;;1.43;;
9759;SDS011;4919;48.792;9.202;2022-09-01T04:13:37;1.80;;;1.40;;
9759;SDS011;4919;48.792;9.202;2022-09-01T04:16:04;2.37;;;1.50;;
9759;SDS011;4919;48.792;9.202;2022-09-01T04:18:56;1.80;;;1.30;;
9759;SDS011;4919;48.792;9.202;2022-09-01T04:21:26;1.77;;;1.23;;
9759;SDS011;4919;48.792;9.202;2022-09-01T04:23:56;1.80;;;1.40;;
9759;SDS011;4919;48.792;9.202;2022-09-01T04:26:30;2.83;;;1.33;;
9759;SDS011;4919;48.792;9.202;2022-09-01T04:28:59;2.67;;;1.30;;
9759;SDS011;4919;48.792;9.202;2022-09-01T04:31:26;2.40;;;1.50;;
9759;SDS011;4919;48.792;9.202;2022-09-01T04:33:53;3.53;;;1.70;;
9759;SDS011;4919;48.792;9.202;2022-09-01T04:36:22;2.00;;;1.40;;
9759;SDS011;4919;48.792;9.202;2022-09-01T04:38:57;2.60;;;1.60;;
9759;SDS011;4919;48.792;9.202;2022-09-01T04:41:27;1.97;;;1.50;;
9759;SDS011;4919;48.792;9.202;2022-09-01T04:44:00;2.43;;;1.40;;
9759;SDS011;4919;48.792;9.202;2022-09-01T04:46:34;2.70;;;1.50;;
9759;SDS011;4919;48.792;9.202;2022-09-01T04:49:05;2.23;;;1.50;;
9759;SDS011;4919;48.792;9.202;2022-09-01T04:51:39;1.73;;;1.50;;
9759;SDS011;4919;48.792;9.202;2022-09-01T04:54:09;4.13;;;1.60;;
9759;SDS011;4919;48.792;9.202;2022-09-01T04:56:41;2.03;;;1.40;;
9759;SDS011;4919;48.792;9.202;2022-09-01T04:59:12;2.53;;;1.77;;
9759;SDS011;4919;48.792;9.202;2022-09-01T05:01:41;3.23;;;1.50;;
9759;SDS011;4919;48.792;9.202;2022-09-01T05:04:10;4.93;;;1.70;;
9759;SDS011;4919;48.792;9.202;2022-09-01T05:06:48;2.00;;;1.70;;
9759;SDS011;4919;48.792;9.202;2022-09-01T05:09:35;5.60;;;1.60;;
9759;SDS011;4919;48.792;9.202;2022-09-01T05:12:20;2.07;;;1.37;;
9759;SDS011;4919;48.792;9.202;2022-09-01T05:14:49;2.93;;;1.50;;
9759;SDS011;4919;48.792;9.202;2022-09-01T05:17:17;2.60;;;1.40;;
9759;SDS011;4919;48.792;9.202;2022-09-01T05:19:46;3.03;;;1.90;;
9759;SDS011;4919;48.792;9.202;2022-09-01T05:22:17;1.87;;;1.40;;
9759;SDS011;4919;48.792;9.202;2022-09-01T05:24:54;1.73;;;1.30;;
9759;SDS011;4919;48.792;9.202;2022-09-01T05:27:22;3.03;;;1.67;;
9759;SDS011;4919;48.792;9.202;2022-09-01T05:29:49;4.27;;;1.47;;
9759;SDS011;4919;48.792;9.202;2022-09-01T05:32:16;1.93;;;1.37;;
9759;SDS011;4919;48.792;9.202;2022-09-01T05:34:43;2.93;;;1.50;;
9759;SDS011;4919;48.792;9.202;2022-09-01T05:37:12;1.60;;;1.40;;
9759;SDS011;4919;48.792;9.202;2022-09-01T05:39:41;3.03;;;1.60;;
9759;SDS011;4919;48.792;9.202;2022-09-01T05:42:09;2.73;;;1.50;;
9759;SDS011;4919;48.792;9.202;2022-09-01T05:44:37;4.53;;;1.60;;
9759;SDS011;4919;48.792;9.202;2022-09-01T05:47:11;2.93;;;1.50;;
9759;SDS011;4919;48.792;9.202;2022-09-01T05:49:47;2.33;;;1.60;;
9759;SDS011;4919;48.792;9.202;2022-09-01T05:52:15;3.57;;;1.57;;
9759;SDS011;4919;48.792;9.202;2022-09-01T05:54:42;5.37;;;1.57;;
9759;SDS011;4919;48.792;9.202;2022-09-01T05:57:09;3.33;;;1.80;;
9759;SDS011;4919;48.792;9.202;2022-09-01T05:59:56;1.53;;;1.23;;
9759;SDS011;4919;48.792;9.202;2022-09-01T06:02:24;4.10;;;1.67;;
9759;SDS011;4919;48.792;9.202;2022-09-01T06:04:53;2.70;;;1.50;;
9759;SDS011;4919;48.792;9.202;2022-09-01T06:07:27;5.73;;;1.80;;
9759;SDS011;4919;48.792;9.202;2022-09-01T06:09:56;1.80;;;1.30;;
9759;SDS011;4919;48.792;9.202;2022-09-01T06:12:25;3.17;;;1.60;;
9759;SDS011;4919;48.792;9.202;2022-09-01T06:14:54;2.03;;;1.57;;
9759;SDS011;4919;48.792;9.202;2022-09-01T06:17:23;1.40;;;1.30;;
9759;SDS011;4919;48.792;9.202;2022-09-01T06:19:55;3.33;;;1.50;;
9759;SDS011;4919;48.792;9.202;2022-09-01T06:22:24;3.43;;;1.50;;
9759;SDS011;4919;48.792;9.202;2022-09-01T06:24:55;3.37;;;1.50;;
9759;SDS011;4919;48.792;9.202;2022-09-01T06:27:32;2.67;;;1.50;;
9759;SDS011;4919;48.792;9.202;2022-09-01T06:30:00;3.13;;;1.60;;
9759;SDS011;4919;48.792;9.202;2022-09-01T06:32:33;2.57;;;1.83;;
9759;SDS011;4919;48.792;9.202;2022-09-01T06:35:03;1.40;;;1.30;;
9759;SDS011;4919;48.792;9.202;2022-09-01T06:37:35;2.60;;;1.60;;
9759;SDS011;4919;48.792;9.202;2022-09-01T06:40:04;1.97;;;1.53;;
9759;SDS011;4919;48.792;9.202;2022-09-01T06:42:33;5.13;;;1.60;;
9759;SDS011;4919;48.792;9.202;2022-09-01T06:45:00;2.17;;;1.50;;
9759;SDS011;4919;48.792;9.202;2022-09-01T06:47:28;3.30;;;1.53;;
9759;SDS011;4919;48.792;9.202;2022-09-01T06:49:55;5.27;;;1.70;;
9759;SDS011;4919;48.792;9.202;2022-09-01T06:52:25;3.23;;;1.60;;
9759;SDS011;4919;48.792;9.202;2022-09-01T06:54:54;2.90;;;1.60;;
9759;SDS011;4919;48.792;9.202;2022-09-01T06:57:23;1.97;;;1.40;;
9759;SDS011;4919;48.792;9.202;2022-09-01T07:00:14;1.93;;;1.43;;
9759;SDS011;4919;48.792;9.202;2022-09-01T07:02:51;1.50;;;1.40;;
9759;SDS011;4919;48.792;9.202;2022-09-01T07:05:37;3.47;;;1.43;;
9759;SDS011;4919;48.792;9.202;2022-09-01T07:08:58;2.10;;;1.50;;
9759;SDS011;4919;48.792;9.202;2022-09-01T07:12:05;1.87;;;1.17;;
9759;SDS011;4919;48.792;9.202;2022-09-01T07:14:50;2.13;;;1.23;;
9759;SDS011;4919;48.792;9.202;2022-09-01T07:17:39;3.90;;;1.53;;
9759;SDS011;4919;48.792;9.202;2022-09-01T07:20:08;1.57;;;1.30;;
9759;SDS011;4919;48.792;9.202;2022-09-01T07:22:54;1.97;;;1.40;;
9759;SDS011;4919;48.792;9.202;2022-09-01T07:25:32;3.33;;;1.40;;
9759;SDS011;4919;48.792;9.202;2022-09-01T07:28:33;2.43;;;1.40;;
9759;SDS011;4919;48.792;9.202;2022-09-01T07:31:02;2.73;;;1.40;;
9759;SDS011;4919;48.792;9.202;2022-09-01T07:33:51;1.57;;;1.20;;
9759;SDS011;4919;48.792;9.202;2022-09-01T07:36:40;2.20;;;1.17;;
9759;SDS011;4919;48.792;9.202;2022-09-01T07:39:29;1.70;;;1.20;;
9759;SDS011;4919;48.792;9.202;2022-09-01T07:42:29;2.03;;;1.20;;
9759;SDS011;4919;48.792;9.202;2022-09-01T07:45:35;1.33;;;1.03;;
9759;SDS011;4919;48.792;9.202;2022-09-01T07:48:15;1.67;;;1.20;;
9759;SDS011;4919;48.792;9.202;2022-09-01T07:51:05;2.43;;;1.30;;
9759;SDS011;4919;48.792;9.202;2022-09-01T07:53:53;1.47;;;1.20;;
9759;SDS011;4919;48.792;9.202;2022-09-01T07:56:22;2.83;;;1.27;;
9759;SDS011;4919;48.792;9.202;2022-09-01T07:58:51;1.20;;;1.10;;
9759;SDS011;4919;48.792;9.202;2022-09-01T08:01:21;1.33;;;1.10;;
9759;SDS011;4919;48.792;9.202;2022-09-01T08:03:52;1.43;;;1.20;;
9759;SDS011;4919;48.792;9.202;2022-09-01T08:06:22;1.93;;;1.20;;
9759;SDS011;4919;48.792;9.202;2022-09-01T08:08:54;3.20;;;1.20;;
9759;SDS011;4919;48.792;9.202;2022-09-01T08:11:26;1.90;;;1.40;;
9759;SDS011;4919;48.792;9.202;2022-09-01T08:14:15;2.10;;;1.10;;
9759;SDS011;4919;48.792;9.202;2022-09-01T08:16:44;3.30;;;1.30;;
9759;SDS011;4919;48.792;9.202;2022-09-01T08:19:19;1.40;;;1.30;;
9759;SDS011;4919;48.792;9.202;2022-09-01T08:22:03;1.53;;;1.20;;
9759;SDS011;4919;48.792;9.202;2022-09-01T08:24:45;1.77;;;1.10;;
9759;SDS011;4919;48.792;9.202;2022-09-01T08:27:13;2.77;;;1.20;;
9759;SDS011;4919;48.792;9.202;2022-09-01T08:29:40;2.40;;;1.20;;
9759;SDS011;4919;48.792;9.202;2022-09-01T08:32:07;1.93;;;1.13;;
9759;SDS011;4919;48.792;9.202;2022-09-01T08:34:36;2.07;;;1.00;;
9759;SDS011;4919;48.792;9.202;2022-09-01T08:37:04;1.70;;;1.10;;
9759;SDS011;4919;48.792;9.202;2022-09-01T08:39:32;2.20;;;1.17;;
9759;SDS011;4919;48.792;9.202;2022-09-01T08:44:57;2.10;;;1.10;;
9759;SDS011;4919;48.792;9.202;2022-09-01T08:47:33;1.60;;;1.20;;
9759;SDS011;4919;48.792;9.202;2022-09-01T08:50:21;1.00;;;1.00;;
9759;SDS011;4919;48.792;9.202;2022-09-01T08:53:14;2.63;;;1.13;;
9759;SDS011;4919;48.792;9.202;2022-09-01T08:55:50;1.60;;;1.20;;
9759;SDS011;4919;48.792;9.202;2022-09-01T08:58:21;3.07;;;1.30;;
9759;SDS011;4919;48.792;9.202;2022-09-01T09:01:08;3.00;;;1.30;;
9759;SDS011;4919;48.792;9.202;2022-09-01T09:03:50;2.93;;;1.20;;
9759;SDS011;4919;48.792;9.202;2022-09-01T09:09:05;2.10;;;1.00;;
9759;SDS011;4919;48.792;9.202;2022-09-01T09:14:44;1.30;;;1.10;;
9759;SDS011;4919;48.792;9.202;2022-09-01T09:17:36;1.30;;;1.20;;
9759;SDS011;4919;48.792;9.202;2022-09-01T09:20:10;1.27;;;1.20;;
9759;SDS011;4919;48.792;9.202;2022-09-01T09:22:37;1.83;;;1.20;;
9759;SDS011;4919;48.792;9.202;2022-09-01T09:27:45;1.33;;;1.20;;
9759;SDS011;4919;48.792;9.202;2022-09-01T09:30:21;2.83;;;1.30;;
9759;SDS011;4919;48.792;9.202;2022-09-01T09:35:50;1.30;;;1.00;;
9759;SDS011;4919;48.792;9.202;2022-09-01T09:38:21;1.03;;;1.00;;
9759;SDS011;4919;48.792;9.202;2022-09-01T09:43:58;2.73;;;1.30;;
9759;SDS011;4919;48.792;9.202;2022-09-01T09:51:43;1.67;;;1.30;;
9759;SDS011;4919;48.792;9.202;2022-09-01T10:02:30;1.00;;;1.00;;
9759;SDS011;4919;48.792;9.202;2022-09-01T10:05:21;2.60;;;1.23;;
9759;SDS011;4919;48.792;9.202;2022-09-01T10:07:52;1.60;;;1.40;;
9759;SDS011;4919;48.792;9.202;2022-09-01T10:13:15;1.27;;;1.10;;
9759;SDS011;4919;48.792;9.202;2022-09-01T10:15:48;1.30;;;1.13;;
9759;SDS011;4919;48.792;9.202;2022-09-01T10:18:20;3.57;;;1.20;;
9759;SDS011;4919;48.792;9.202;2022-09-01T10:21:00;1.20;;;1.10;;
9759;SDS011;4919;48.792;9.202;2022-09-01T10:23:33;1.80;;;1.40;;
9759;SDS011;4919;48.792;9.202;2022-09-01T10:26:04;3.20;;;1.20;;
9759;SDS011;4919;48.792;9.202;2022-09-01T10:28:38;2.53;;;1.20;;
9759;SDS011;4919;48.792;9.202;2022-09-01T10:31:16;1.83;;;1.30;;
9759;SDS011;4919;48.792;9.202;2022-09-01T10:33:44;1.20;;;1.10;;
9759;SDS011;4919;48.792;9.202;2022-09-01T10:36:11;1.27;;;1.17;;
9759;SDS011;4919;48.792;9.202;2022-09-01T10:38:40;2.47;;;1.00;;
9759;SDS011;4919;48.792;9.202;2022-09-01T10:44:19;2.23;;;1.30;;
9759;SDS011;4919;48.792;9.202;2022-09-01T10:46:49;4.37;;;1.43;;
9759;SDS011;4919;48.792;9.202;2022-09-01T10:49:19;2.43;;;1.07;;
9759;SDS011;4919;48.792;9.202;2022-09-01T10:52:23;1.20;;;1.10;;
9759;SDS011;4919;48.792;9.202;2022-09-01T10:55:22;2.20;;;1.10;;
9759;SDS011;4919;48.792;9.202;2022-09-01T10:58:23;2.77;;;1.27;;
9759;SDS011;4919;48.792;9.202;2022-09-01T11:04:15;2.20;;;1.10;;
9759;SDS011;4919;48.792;9.202;2022-09-01T11:20:28;2.03;;;1.57;;
9759;SDS011;4919;48.792;9.202;2022-09-01T11:23:11;2.00;;;1.13;;
9759;SDS011;4919;48.792;9.202;2022-09-01T11:25:51;2.90;;;1.30;;
9759;SDS011;4919;48.792;9.202;2022-09-01T11:28:39;2.20;;;1.27;;
9759;SDS011;4919;48.792;9.202;2022-09-01T11:36:46;1.03;;;1.03;;
9759;SDS011;4919;48.792;9.202;2022-09-01T11:47:07;1.10;;;1.00;;
9759;SDS011;4919;48.792;9.202;2022-09-01T11:49:46;2.40;;;1.00;;
9759;SDS011;4919;48.792;9.202;2022-09-01T11:52:14;2.00;;;0.97;;
9759;SDS011;4919;48.792;9.202;2022-09-01T11:54:42;4.43;;;1.43;;
9759;SDS011;4919;48.792;9.202;2022-09-01T11:57:28;2.07;;;1.10;;
9759;SDS011;4919;48.792;9.202;2022-09-01T12:00:03;1.97;;;1.10;;
9759;SDS011;4919;48.792;9.202;2022-09-01T12:02:41;8.40;;;1.60;;
9759;SDS011;4919;48.792;9.202;2022-09-01T12:07:52;1.13;;;1.00;;
9759;SDS011;4919;48.792;9.202;2022-09-01T12:13:20;2.13;;;1.13;;
9759;SDS011;4919;48.792;9.202;2022-09-01T12:15:56;1.27;;;1.17;;
9759;SDS011;4919;48.792;9.202;2022-09-01T12:18:44;1.23;;;0.97;;
9759;SDS011;4919;48.792;9.202;2022-09-01T12:26:48;1.80;;;1.00;;
9759;SDS011;4919;48.792;9.202;2022-09-01T12:29:16;1.57;;;1.00;;
9759;SDS011;4919;48.792;9.202;2022-09-01T12:31:44;2.67;;;1.10;;
9759;SDS011;4919;48.792;9.202;2022-09-01T12:39:35;1.30;;;1.10;;
9759;SDS011;4919;48.792;9.202;2022-09-01T12:42:06;1.20;;;1.10;;
9759;SDS011;4919;48.792;9.202;2022-09-01T12:47:09;1.53;;;1.00;;
9759;SDS011;4919;48.792;9.202;2022-09-01T12:49:42;2.67;;;1.10;;
9759;SDS011;4919;48.792;9.202;2022-09-01T12:54:47;0.97;;;0.90;;
9759;SDS011;4919;48.792;9.202;2022-09-01T12:57:29;1.20;;;1.10;;
9759;SDS011;4919;48.792;9.202;2022-09-01T13:02:37;1.23;;;1.10;;
9759;SDS011;4919;48.792;9.202;2022-09-01T13:10:34;1.50;;;1.03;;
9759;SDS011;4919;48.792;9.202;2022-09-01T13:13:04;1.00;;;1.00;;
9759;SDS011;4919;48.792;9.202;2022-09-01T13:15:32;0.93;;;0.90;;
9759;SDS011;4919;48.792;9.202;2022-09-01T13:18:00;1.10;;;1.00;;
9759;SDS011;4919;48.792;9.202;2022-09-01T13:20:27;2.00;;;1.10;;
9759;SDS011;4919;48.792;9.202;2022-09-01T13:22:54;0.93;;;0.90;;
9759;SDS011;4919;48.792;9.202;2022-09-01T13:25:22;2.53;;;1.10;;
9759;SDS011;4919;48.792;9.202;2022-09-01T13:27:49;1.50;;;1.10;;
9759;SDS011;4919;48.792;9.202;2022-09-01T13:30:18;2.93;;;1.40;;
9759;SDS011;4919;48.792;9.202;2022-09-01T13:32:47;1.93;;;1.10;;
9759;SDS011;4919;48.792;9.202;2022-09-01T13:35:34;1.57;;;1.10;;
9759;SDS011;4919;48.792;9.202;2022-09-01T13:38:01;1.70;;;1.33;;
9759;SDS011;4919;48.792;9.202;2022-09-01T13:40:28;1.83;;;1.00;;
9759;SDS011;4919;48.792;9.202;2022-09-01T13:42:55;2.30;;;1.20;;
9759;SDS011;4919;48.792;9.202;2022-09-01T13:45:22;1.60;;;1.00;;
9759;SDS011;4919;48.792;9.202;2022-09-01T13:47:51;1.10;;;1.00;;
9759;SDS011;4919;48.792;9.202;2022-09-01T13:50:38;2.70;;;1.00;;
9759;SDS011;4919;48.792;9.202;2022-09-01T13:53:25;1.67;;;1.00;;
9759;SDS011;4919;48.792;9.202;2022-09-01T13:55:52;1.20;;;0.90;;
9759;SDS011;4919;48.792;9.202;2022-09-01T13:58:19;1.00;;;1.00;;
9759;SDS011;4919;48.792;9.202;2022-09-01T14:00:46;1.10;;;1.00;;
9759;SDS011;4919;48.792;9.202;2022-09-01T14:03:15;2.57;;;1.00;;
9759;SDS011;4919;48.792;9.202;2022-09-01T14:05:45;4.00;;;1.10;;
9759;SDS011;4919;48.792;9.202;2022-09-01T14:08:15;2.90;;;1.07;;
9759;SDS011;4919;48.792;9.202;2022-09-01T14:10:45;1.17;;;1.00;;
9759;SDS011;4919;48.792;9.202;2022-09-01T14:13:16;1.40;;;1.07;;
9759;SDS011;4919;48.792;9.202;2022-09-01T14:15:45;3.60;;;1.00;;
9759;SDS011;4919;48.792;9.202;2022-09-01T14:18:13;2.87;;;1.10;;
9759;SDS011;4919;48.792;9.202;2022-09-01T14:20:42;1.23;;;0.93;;
9759;SDS011;4919;48.792;9.202;2022-09-01T14:23:12;2.23;;;1.00;;
9759;SDS011;4919;48.792;9.202;2022-09-01T14:25:41;1.97;;;1.00;;
9759;SDS011;4919;48.792;9.202;2022-09-01T14:28:09;0.90;;;0.90;;
9759;SDS011;4919;48.792;9.202;2022-09-01T14:30:38;1.10;;;1.00;;
9759;SDS011;4919;48.792;9.202;2022-09-01T14:33:08;1.37;;;1.00;;
9759;SDS011;4919;48.792;9.202;2022-09-01T14:35:38;2.27;;;1.00;;
9759;SDS011;4919;48.792;9.202;2022-09-01T14:38:07;1.07;;;0.93;;
9759;SDS011;4919;48.792;9.202;2022-09-01T14:40:36;1.20;;;0.90;;
9759;SDS011;4919;48.792;9.202;2022-09-01T14:43:05;1.23;;;1.13;;
9759;SDS011;4919;48.792;9.202;2022-09-01T14:45:35;1.10;;;1.00;;
9759;SDS011;4919;48.792;9.202;2022-09-01T14:48:03;1.10;;;1.00;;
9759;SDS011;4919;48.792;9.202;2022-09-01T14:50:31;1.50;;;1.00;;
9759;SDS011;4919;48.792;9.202;2022-09-01T14:52:59;1.93;;;1.10;;
9759;SDS011;4919;48.792;9.202;2022-09-01T14:55:28;1.40;;;1.27;;
9759;SDS011;4919;48.792;9.202;2022-09-01T14:57:56;1.23;;;1.10;;
9759;SDS011;4919;48.792;9.202;2022-09-01T15:00:23;1.30;;;1.00;;
9759;SDS011;4919;48.792;9.202;2022-09-01T15:02:52;1.23;;;1.10;;
9759;SDS011;4919;48.792;9.202;2022-09-01T15:05:20;1.33;;;1.10;;
9759;SDS011;4919;48.792;9.202;2022-09-01T15:07:48;1.97;;;1.07;;
9759;SDS011;4919;48.792;9.202;2022-09-01T15:10:17;1.83;;;1.00;;
9759;SDS011;4919;48.792;9.202;2022-09-01T15:12:51;1.03;;;0.97;;
9759;SDS011;4919;48.792;9.202;2022-09-01T15:15:20;0.90;;;0.90;;
9759;SDS011;4919;48.792;9.202;2022-09-01T15:17:47;1.43;;;0.90;;
9759;SDS011;4919;48.792;9.202;2022-09-01T15:20:14;1.10;;;1.00;;
9759;SDS011;4919;48.792;9.202;2022-09-01T15:23:00;2.53;;;1.10;;
9759;SDS011;4919;48.792;9.202;2022-09-01T15:25:27;1.20;;;1.10;;
9759;SDS011;4919;48.792;9.202;2022-09-01T15:27:54;2.50;;;1.03;;
9759;SDS011;4919;48.792;9.202;2022-09-01T15:30:21;1.00;;;0.90;;
9759;SDS011;4919;48.792;9.202;2022-09-01T15:32:50;1.00;;;0.90;;
9759;SDS011;4919;48.792;9.202;2022-09-01T15:35:18;1.00;;;0.90;;
9759;SDS011;4919;48.792;9.202;2022-09-01T15:37:46;1.80;;;1.13;;
9759;SDS011;4919;48.792;9.202;2022-09-01T15:40:15;2.33;;;1.10;;
9759;SDS011;4919;48.792;9.202;2022-09-01T15:42:42;2.57;;;1.10;;
9759;SDS011;4919;48.792;9.202;2022-09-01T15:45:11;1.37;;;1.00;;
9759;SDS011;4919;48.792;9.202;2022-09-01T15:47:43;1.47;;;1.10;;
9759;SDS011;4919;48.792;9.202;2022-09-01T15:50:15;2.43;;;1.20;;
9759;SDS011;4919;48.792;9.202;2022-09-01T15:52:51;2.03;;;1.13;;
9759;SDS011;4919;48.792;9.202;2022-09-01T15:55:24;1.23;;;1.00;;
9759;SDS011;4919;48.792;9.202;2022-09-01T15:57:55;2.07;;;1.10;;
9759;SDS011;4919;48.792;9.202;2022-09-01T16:00:24;2.30;;;1.10;;
9759;SDS011;4919;48.792;9.202;2022-09-01T16:02:52;2.93;;;1.10;;
9759;SDS011;4919;48.792;9.202;2022-09-01T16:05:23;1.00;;;0.90;;
9759;SDS011;4919;48.792;9.202;2022-09-01T16:07:51;1.10;;;1.00;;
9759;SDS011;4919;48.792;9.202;2022-09-01T16:10:18;2.47;;;1.00;;
9759;SDS011;4919;48.792;9.202;2022-09-01T16:12:46;1.67;;;1.00;;
9759;SDS011;4919;48.792;9.202;2022-09-01T16:15:15;2.70;;;1.17;;
9759;SDS011;4919;48.792;9.202;2022-09-01T16:20:21;1.63;;;1.10;;
9759;SDS011;4919;48.792;9.202;2022-09-01T16:22:57;2.93;;;1.00;;
9759;SDS011;4919;48.792;9.202;2022-09-01T16:25:30;2.70;;;1.20;;
9759;SDS011;4919;48.792;9.202;2022-09-01T16:28:00;1.07;;;1.07;;
9759;SDS011;4919;48.792;9.202;2022-09-01T16:30:35;2.93;;;1.20;;
9759;SDS011;4919;48.792;9.202;2022-09-01T16:33:02;1.73;;;1.10;;
9759;SDS011;4919;48.792;9.202;2022-09-01T16:35:34;1.13;;;1.10;;
9759;SDS011;4919;48.792;9.202;2022-09-01T16:38:20;2.23;;;1.17;;
9759;SDS011;4919;48.792;9.202;2022-09-01T16:43:42;1.10;;;1.00;;
9759;SDS011;4919;48.792;9.202;2022-09-01T16:46:13;3.73;;;1.27;;
9759;SDS011;4919;48.792;9.202;2022-09-01T16:49:14;1.73;;;1.20;;
9759;SDS011;4919;48.792;9.202;2022-09-01T16:52:05;1.50;;;1.20;;
9759;SDS011;4919;48.792;9.202;2022-09-01T16:59:51;2.07;;;1.23;;
9759;SDS011;4919;48.792;9.202;2022-09-01T17:05:26;1.77;;;1.10;;
9759;SDS011;4919;48.792;9.202;2022-09-01T17:08:20;1.87;;;1.20;;
9759;SDS011;4919;48.792;9.202;2022-09-01T17:10:56;1.90;;;1.20;;
9759;SDS011;4919;48.792;9.202;2022-09-01T17:13:27;1.27;;;1.17;;
9759;SDS011;4919;48.792;9.202;2022-09-01T17:16:05;1.20;;;1.20;;
9759;SDS011;4919;48.792;9.202;2022-09-01T17:18:55;1.40;;;1.30;;
9759;SDS011;4919;48.792;9.202;2022-09-01T17:26:41;1.40;;;1.10;;
9759;SDS011;4919;48.792;9.202;2022-09-01T17:29:17;1.73;;;1.10;;
9759;SDS011;4919;48.792;9.202;2022-09-01T17:34:51;1.83;;;1.20;;
9759;SDS011;4919;48.792;9.202;2022-09-01T17:37:24;3.03;;;1.30;;
9759;SDS011;4919;48.792;9.202;2022-09-01T17:40:13;2.20;;;1.10;;
9759;SDS011;4919;48.792;9.202;2022-09-01T17:56:08;2.80;;;1.30;;
9759;SDS011;4919;48.792;9.202;2022-09-01T18:06:56;1.83;;;1.30;;
9759;SDS011;4919;48.792;9.202;2022-09-01T18:09:47;2.00;;;1.40;;
9759;SDS011;4919;48.792;9.202;2022-09-01T18:12:20;5.40;;;1.57;;
9759;SDS011;4919;48.792;9.202;2022-09-01T18:14:55;3.33;;;1.50;;
9759;SDS011;4919;48.792;9.202;2022-09-01T18:17:31;4.00;;;1.63;;